Time;durP1;ratioP1;P1;durP2;ratioP2;P2;SDS_P1;SDS_P2;PMS_P1;PMS_P2;Temp;Humidity;BMP_temperature;BMP_pressure;BME280_temperature;BME280_humidity;BME280_pressure;Samples;Min_cycle;Max_cycle;Signal;HPM_P1;HPM_P2
2023/01/02 00:00:07;;;;;;;204.75;127.78;;;;;;;;;;4997316;28;20044;-88
2023/01/02 00:02:34;;;;;;;167.57;104.82;;;;;;;;;;4997327;28;20052;-86
2023/01/02 00:05:00;;;;;;;159.95;100.63;;;;;;;;;;4997218;28;20030;-88
2023/01/02 00:07:26;;;;;;;151.43;92.40;;;;;;;;;;4997162;28;20399;-87
2023/01/02 00:09:52;;;;;;;146.35;95.28;;;;;;;;;;4997101;28;20026;-88
2023/01/02 00:12:18;;;;;;;146.45;92.13;;;;;;;;;;4997157;28;20022;-87
2023/01/02 00:14:44;;;;;;;172.57;100.18;;;;;;;;;;4992780;28;20462;-88
2023/01/02 00:17:10;;;;;;;212.65;120.43;;;;;;;;;;4977359;28;20029;-87
2023/01/02 00:19:36;;;;;;;291.85;160.88;;;;;;;;;;4977181;28;20054;-88
2023/01/02 00:22:02;;;;;;;271.35;154.50;;;;;;;;;;4977774;28;20023;-86
2023/01/02 00:24:29;;;;;;;301.77;167.60;;;;;;;;;;4977456;28;20026;-88
2023/01/02 00:26:55;;;;;;;326.35;176.63;;;;;;;;;;4977456;28;20023;-86
2023/01/02 00:29:21;;;;;;;308.52;164.02;;;;;;;;;;4977341;28;20137;-86
2023/01/02 00:31:47;;;;;;;297.08;167.75;;;;;;;;;;4977995;28;20023;-84
2023/01/02 00:34:13;;;;;;;245.95;141.23;;;;;;;;;;4977345;28;20030;-85
2023/01/02 00:36:39;;;;;;;239.38;143.50;;;;;;;;;;4977390;28;20121;-87
2023/01/02 00:39:05;;;;;;;238.02;138.18;;;;;;;;;;4977548;28;20485;-87
2023/01/02 00:41:31;;;;;;;224.90;130.73;;;;;;;;;;4977197;28;20024;-86
2023/01/02 00:43:57;;;;;;;236.65;136.77;;;;;;;;;;4980445;28;20022;-87
2023/01/02 00:46:23;;;;;;;219.95;133.20;;;;;;;;;;4996690;28;20500;-87
2023/01/02 00:48:50;;;;;;;183.50;108.63;;;;;;;;;;4995879;28;20030;-87
2023/01/02 00:51:16;;;;;;;196.45;119.10;;;;;;;;;;4996922;28;20032;-87
2023/01/02 00:53:42;;;;;;;199.55;117.07;;;;;;;;;;4996735;28;20547;-88
2023/01/02 00:56:08;;;;;;;183.52;114.45;;;;;;;;;;4996638;28;20025;-89
2023/01/02 00:58:34;;;;;;;139.52;84.05;;;;;;;;;;4996804;28;20087;-88
2023/01/02 01:01:00;;;;;;;146.48;88.93;;;;;;;;;;4996517;28;20022;-88
2023/01/02 01:03:26;;;;;;;133.75;82.55;;;;;;;;;;4996374;28;20018;-88
2023/01/02 01:05:53;;;;;;;113.03;69.40;;;;;;;;;;4996678;28;20029;-89
2023/01/02 01:08:19;;;;;;;101.20;62.20;;;;;;;;;;4996519;28;20022;-86
2023/01/02 01:10:45;;;;;;;152.95;85.55;;;;;;;;;;4996639;28;20037;-87
2023/01/02 01:13:11;;;;;;;165.18;95.45;;;;;;;;;;4996277;28;20033;-85
2023/01/02 01:15:37;;;;;;;171.93;96.78;;;;;;;;;;4996147;28;20092;-87
2023/01/02 01:18:03;;;;;;;226.80;125.10;;;;;;;;;;4996193;28;20034;-90
2023/01/02 01:20:30;;;;;;;167.52;101.55;;;;;;;;;;4996399;28;20109;-86
2023/01/02 01:22:56;;;;;;;155.48;90.95;;;;;;;;;;4996060;28;20116;-88
2023/01/02 01:25:22;;;;;;;165.15;92.63;;;;;;;;;;4996325;28;20489;-87
2023/01/02 01:27:51;;;;;;;151.00;89.60;;;;;;;;;;5013632;28;20084;-87
2023/01/02 01:30:18;;;;;;;147.70;88.55;;;;;;;;;;5013433;28;20120;-86
2023/01/02 01:32:44;;;;;;;131.18;81.95;;;;;;;;;;4996143;28;20109;-86
2023/01/02 01:35:11;;;;;;;121.85;73.95;;;;;;;;;;5013617;28;20030;-89
2023/01/02 01:37:43;;;;;;;89.13;53.38;;;;;;;;;;5016505;28;20524;-86
2023/01/02 01:43:44;;;;;;;70.93;43.53;;;;;;;;;;5018145;28;20064;-85
2023/01/02 01:46:50;;;;;;;73.25;40.30;;;;;;;;;;4989868;28;20113;-86
2023/01/02 01:56:30;;;;;;;76.07;44.50;;;;;;;;;;4957371;29;20034;-86
2023/01/02 02:15:13;;;;;;;78.28;50.13;;;;;;;;;;4941216;29;20103;-86
2023/01/02 02:24:16;;;;;;;165.52;74.68;;;;;;;;;;4867600;29;20510;-85
2023/01/02 03:32:23;;;;;;;83.85;51.58;;;;;;;;;;4982871;28;20050;-85
2023/01/02 03:35:28;;;;;;;73.55;45.08;;;;;;;;;;4966933;28;20053;-86
2023/01/02 03:38:39;;;;;;;76.75;46.00;;;;;;;;;;4963428;28;20027;-87
2023/01/02 03:44:48;;;;;;;83.80;51.58;;;;;;;;;;4983344;28;20037;-83
2023/01/02 03:48:07;;;;;;;96.97;55.30;;;;;;;;;;4987757;28;20117;-83
2023/01/02 04:00:31;;;;;;;74.68;46.08;;;;;;;;;;4882873;29;20055;-84
2023/01/02 04:07:05;;;;;;;72.00;43.05;;;;;;;;;;4873819;29;20052;-82
2023/01/02 04:10:20;;;;;;;84.13;48.47;;;77.40;2227.20;;;;;;4871268;29;20052;-82
2023/01/02 04:13:48;;;;;;;94.70;53.10;;;77.20;2227.20;;;;;;4864178;29;20029;-83
2023/01/02 04:26:17;;;;;;;100.70;56.25;;;;;;;;;;4899863;29;20039;-82
2023/01/02 04:39:10;;;;;;;81.65;41.53;;;;;;;;;;4913159;29;20064;-82
2023/01/02 04:41:45;;;;;;;;;;;;;;;;;;4911027;29;20040;-82
2023/01/02 04:55:42;;;;;;;123.10;66.18;;;77.00;2227.20;;;;;;4927308;29;20067;-82
2023/01/02 04:59:08;;;;;;;103.25;57.30;;;76.90;2227.20;;;;;;4902137;29;20063;-81
2023/01/02 05:05:11;;;;;;;;;;;76.90;2227.20;;;;;;4890824;29;20044;-83
2023/01/02 05:08:39;;;;;;;101.03;56.83;;;77.00;2227.20;;;;;;4881064;29;20424;-82
2023/01/02 05:12:19;;;;;;;83.50;48.15;;;76.90;2227.20;;;;;;4793826;29;20513;-83
2023/01/02 05:15:29;;;;;;;74.63;43.95;;;76.90;2227.20;;;;;;4787674;30;20042;-82
2023/01/02 05:18:58;;;;;;;78.28;48.78;;;77.00;2227.20;;;;;;4740039;30;20040;-84
2023/01/02 05:25:40;;;;;;;101.70;66.07;;;77.00;2227.20;;;;;;4789127;30;20046;-84
2023/01/02 05:29:21;;;;;;;78.45;48.60;;;76.80;2227.20;;;;;;4765238;30;20111;-85
2023/01/02 06:13:28;;;;;;;78.13;43.70;;;;;;;;;;4916467;29;20216;-81
2023/01/02 06:16:42;;;;;;;77.88;45.20;;;;;;;;;;4856555;29;20046;-80
2023/01/02 06:22:50;;;;;;;;;;;;;;;;;;4917858;29;21421;-80
2023/01/02 06:26:07;;;;;;;82.88;46.75;;;;;;;;;;4897532;29;19968;-80
2023/01/02 06:32:06;;;;;;;78.07;49.03;;;;;;;;;;4878372;29;20063;-82
2023/01/02 06:34:51;;;;;;;82.45;46.60;;;;;;;;;;4872828;29;20516;-81
2023/01/02 06:38:05;;;;;;;92.32;54.25;;;;;;;;;;4875346;29;20448;-81
2023/01/02 06:41:35;;;;;;;98.95;54.80;;;;;;;;;;4882122;29;20046;-80
2023/01/02 06:52:00;;;;;;;73.45;42.67;;;52.00;2227.20;;;;;;4842761;29;20091;-80
2023/01/02 06:55:18;;;;;;;80.00;44.35;;;52.00;2227.20;;;;;;4840652;29;20038;-80
2023/01/02 06:58:48;;;;;;;67.38;43.47;;;52.10;2227.20;;;;;;4838422;29;20039;-80
2023/01/02 07:16:56;;;;;;;99.30;59.97;;;;;;;;;;4817799;29;19963;-82
2023/01/02 07:23:12;;;;;;;114.80;69.93;;;77.30;2227.20;;;;;;4909953;29;20112;-82
2023/01/02 07:26:56;;;;;;;121.07;75.80;;;76.90;2227.20;;;;;;4920723;29;20476;-82
2023/01/02 07:33:50;;;;;;;147.10;85.45;;;77.00;2227.20;;;;;;4901272;29;20315;-80
2023/01/02 07:40:23;;;;;;;135.50;89.18;;;77.10;2227.20;;;;;;4867353;29;20048;-82
2023/01/02 07:44:11;;;;;;;197.57;120.75;;;77.00;2227.20;;;;;;4875878;29;20033;-80
2023/01/02 07:47:45;;;;;;;151.35;95.47;;;76.80;2227.20;;;;;;4892073;29;20503;-79
2023/01/02 07:59:01;;;;;;;144.18;89.15;;;77.10;2227.20;;;;;;4812983;29;20042;-80
2023/01/02 08:02:53;;;;;;;106.30;65.05;;;77.00;1843.20;;;;;;4808450;29;20503;-82
2023/01/02 08:06:24;;;;;;;123.28;74.25;;;77.10;2227.20;;;;;;4736023;30;20052;-83
2023/01/02 08:13:49;;;;;;;138.70;84.70;;;77.10;2227.20;;;;;;4684756;30;20084;-86
2023/01/02 08:17:21;;;;;;;140.10;83.88;;;77.30;2227.20;;;;;;4689497;30;20049;-80
2023/01/02 08:20:51;;;;;;;141.55;90.00;;;;;;;;;;4668359;30;20093;-81
2023/01/02 08:23:58;;;;;;;119.47;78.00;;;;;;;;;;4693030;30;20060;-81
2023/01/02 08:30:26;;;;;;;99.22;62.70;;;;;;;;;;4742164;30;20547;-84
2023/01/02 08:33:49;;;;;;;89.38;58.75;;;;;;;;;;4717973;30;20037;-84
2023/01/02 08:37:04;;;;;;;205.90;124.72;;;;;;;;;;4718229;30;20041;-82
2023/01/02 08:43:37;;;;;;;169.88;111.82;;;;;;;;;;4728419;30;20095;-83
2023/01/02 08:58:30;;;;;;;120.82;75.85;;;;;;;;;;4810342;29;20094;-84
2023/01/02 09:00:57;;;;;;;115.25;77.25;;;;;;;;;;4860043;29;20045;-87
2023/01/02 09:03:23;;;;;;;118.20;75.55;;;;;;;;;;4886683;29;20067;-86
2023/01/02 09:05:49;;;;;;;124.65;81.72;;;;;;;;;;4916152;29;20063;-85
2023/01/02 09:08:16;;;;;;;131.68;89.07;;;;;;;;;;4916058;29;20032;-86
2023/01/02 09:10:43;;;;;;;120.60;84.35;;;;;;;;;;4901126;29;20025;-85
2023/01/02 09:13:10;;;;;;;96.38;68.22;;;;;;;;;;4918803;29;20036;-87
2023/01/02 09:15:36;;;;;;;115.75;76.32;;;;;;;;;;4939115;29;20059;-87
2023/01/02 09:18:02;;;;;;;107.50;71.22;;;;;;;;;;4939153;29;20050;-89
2023/01/02 09:20:28;;;;;;;107.50;69.47;;;;;;;;;;4939887;29;20091;-87
2023/01/02 09:22:54;;;;;;;113.93;80.72;;;;;;;;;;4938897;29;20034;-87
2023/01/02 09:25:20;;;;;;;117.85;83.63;;;;;;;;;;4938511;29;20480;-88
2023/01/02 09:27:46;;;;;;;111.70;75.68;;;;;;;;;;4938303;29;20028;-85
2023/01/02 09:30:13;;;;;;;107.57;71.47;;;;;;;;;;4938555;29;20034;-87
2023/01/02 09:32:39;;;;;;;135.60;87.45;;;;;;;;;;4941384;29;20054;-89
2023/01/02 09:35:05;;;;;;;111.10;75.97;;;;;;;;;;4960929;28;20030;-87
2023/01/02 09:37:31;;;;;;;94.65;61.92;;;;;;;;;;4990871;28;20041;-88
2023/01/02 09:39:57;;;;;;;84.18;58.85;;;;;;;;;;4986508;28;20458;-87
2023/01/02 09:42:23;;;;;;;97.57;64.65;;;;;;;;;;4982405;28;20034;-91
2023/01/02 09:44:53;;;;;;;97.15;66.10;;;;;;;;;;4980867;28;20034;-89
2023/01/02 09:47:20;;;;;;;94.88;61.72;;;;;;;;;;4979126;28;20026;-89
2023/01/02 09:49:54;;;;;;;85.78;55.58;;;;;;;;;;4976491;28;20049;-90
2023/01/02 09:52:22;;;;;;;88.60;57.92;;;;;;;;;;4957398;28;20039;-91
2023/01/02 09:54:48;;;;;;;85.68;55.95;;;;;;;;;;4957678;28;20027;-90
2023/01/02 09:57:20;;;;;;;92.25;60.92;;;;;;;;;;4971864;28;20029;-90
2023/01/02 10:00:04;;;;;;;79.05;52.65;;;;;;;;;;4977617;28;20046;-88
2023/01/02 10:02:40;;;;;;;82.18;51.65;;;;;;;;;;4961498;28;20446;-91
2023/01/02 10:05:13;;;;;;;75.38;49.80;;;;;;;;;;4961117;28;20022;-91
2023/01/02 10:07:47;;;;;;;77.55;49.65;;;;;;;;;;4961171;28;20027;-91
2023/01/02 10:10:13;;;;;;;69.05;45.67;;;;;;;;;;4961040;28;20562;-90
2023/01/02 10:12:46;;;;;;;59.95;41.88;;;;;;;;;;4961005;28;20208;-91
2023/01/02 10:15:18;;;;;;;60.58;39.58;;;;;;;;;;4960812;28;20023;-90
2023/01/02 10:17:48;;;;;;;56.90;39.72;;;;;;;;;;4960787;28;20027;-91
2023/01/02 10:20:14;;;;;;;61.28;38.15;;;;;;;;;;4961083;28;20042;-89
2023/01/02 10:22:46;;;;;;;58.45;39.05;;;;;;;;;;4960774;28;20086;-92
2023/01/02 10:25:15;;;;;;;49.33;35.20;;;;;;;;;;4961085;28;20023;-89
2023/01/02 10:27:53;;;;;;;61.92;44.20;;;;;;;;;;4960634;28;20033;-91
2023/01/02 10:30:21;;;;;;;57.90;41.05;;;;;;;;;;4960814;28;20034;-89
2023/01/02 10:32:51;;;;;;;55.78;38.75;;;;;;;;;;4960885;28;20117;-89
2023/01/02 10:35:20;;;;;;;50.38;36.03;;;;;;;;;;4960494;28;20023;-89
2023/01/02 10:37:45;;;;;;;53.40;37.08;;;256.20;2252.80;;;;;;4960518;28;20182;-88
2023/01/02 10:40:12;;;;;;;56.97;38.30;;;256.20;2252.80;;;;;;4960753;28;20475;-89
2023/01/02 10:42:38;;;;;;;44.20;32.05;;;256.20;2252.80;;;;;;4960335;28;20034;-89
2023/01/02 10:45:06;;;;;;;444.88;236.00;;;256.30;2252.80;;;;;;4968453;28;20101;-89
2023/01/02 10:47:37;;;;;;;96.07;58.65;;;256.40;2252.80;;;;;;4956571;28;20110;-88
2023/01/02 10:50:07;;;;;;;64.45;43.63;;;256.50;2252.80;;;;;;4959810;28;20133;-90
2023/01/02 10:52:45;;;;;;;86.28;54.28;;;256.60;2252.80;;;;;;4970101;28;20088;-89
2023/01/02 10:55:11;;;;;;;120.80;70.43;;;256.60;2252.80;;;;;;4985072;28;20037;-91
2023/01/02 10:57:46;;;;;;;96.35;56.65;;;256.60;2252.80;;;;;;4970248;28;20027;-90
2023/01/02 11:00:26;;;;;;;56.60;37.15;;;256.60;2252.80;;;;;;4994242;28;20026;-90
2023/01/02 11:03:14;;;;;;;63.28;41.38;;;256.70;2252.80;;;;;;4967451;28;20059;-90
2023/01/02 11:05:51;;;;;;;53.85;38.80;;;256.90;2252.80;;;;;;4991650;28;20034;-90
2023/01/02 11:08:20;;;;;;;57.40;38.55;;;281.60;2278.40;;;;;;4971960;28;20031;-91
2023/01/02 11:10:47;;;;;;;131.18;72.88;;;;;;;;;;4970325;28;20026;-90
2023/01/02 11:13:14;;;;;;;73.43;43.78;;;;;;;;;;4979399;28;20030;-90
2023/01/02 11:15:49;;;;;;;51.50;36.05;;;;;;;;;;4972685;28;20035;-90
2023/01/02 11:18:23;;;;;;;63.90;41.80;;;;;;;;;;4959540;28;20030;-86
2023/01/02 11:20:52;;;;;;;55.55;34.88;;;;;;;;;;4959855;28;20482;-91
2023/01/02 11:23:20;;;;;;;49.83;39.45;;;;;;;;;;4960243;28;20424;-92
2023/01/02 11:25:47;;;;;;;50.30;35.60;;;;;;;;;;4959661;28;20023;-90
2023/01/02 11:28:18;;;;;;;49.08;34.17;;;;;;;;;;4959468;28;20027;-88
2023/01/02 11:30:44;;;;;;;50.60;30.52;;;;;;;;;;4959803;28;20080;-88
2023/01/02 11:33:14;;;;;;;48.45;34.50;;;;;;;;;;4959357;28;20026;-90
2023/01/02 11:35:57;;;;;;;51.10;33.13;;;;;;;;;;4958140;28;20606;-85
2023/01/02 11:38:25;;;;;;;51.95;38.03;;;;;;;;;;4964351;28;20034;-86
2023/01/02 11:40:55;;;;;;;53.70;40.30;;;;;;;;;;4978132;28;20032;-87
2023/01/02 11:46:31;;;;;;;45.67;33.15;;;;;;;;;;4996040;28;20187;-84
2023/01/02 11:49:00;;;;;;;50.63;33.90;;;;;;;;;;4978688;28;20077;-86
2023/01/02 11:51:34;;;;;;;54.30;40.08;;;;;;;;;;4975495;28;20109;-87
2023/01/02 11:54:03;;;;;;;51.60;36.55;;;;;;;;;;4975241;28;20132;-87
2023/01/02 11:56:36;;;;;;;72.20;54.63;;;;;;;;;;4975162;28;20382;-87
2023/01/02 11:59:05;;;;;;;50.22;38.63;;;;;;;;;;4974771;28;20122;-86
2023/01/02 12:01:41;;;;;;;56.40;36.65;;;;;;;;;;4974667;28;20029;-86
2023/01/02 12:04:07;;;;;;;88.88;64.28;;;;;;;;;;4974889;28;20090;-84
2023/01/02 12:06:47;;;;;;;67.57;48.55;;;;;;;;;;4959910;28;20085;-85
2023/01/02 12:09:21;;;;;;;99.50;62.72;;;358.50;2329.60;;;;;;4955466;29;20055;-86
2023/01/02 12:11:49;;;;;;;71.75;51.92;;;333.70;2329.60;;;;;;4955450;29;20034;-85
2023/01/02 12:14:22;;;;;;;56.58;41.33;;;333.60;2329.60;;;;;;4955157;29;20059;-84
2023/01/02 12:16:48;;;;;;;;;;;333.50;2329.60;;;;;;4957153;29;20090;-85
2023/01/02 12:19:13;;;;;;;58.67;41.45;;;333.50;2329.60;;;;;;4971375;28;19906;-85
2023/01/02 12:21:49;;;;;;;43.60;33.17;;;333.60;2329.60;;;;;;4954567;28;20023;-85
2023/01/02 12:24:33;;;;;;;53.13;33.35;;;333.50;2329.60;;;;;;4955108;29;20052;-86
2023/01/02 12:27:27;;;;;;;55.78;36.38;;;333.60;2329.60;;;;;;4955726;28;20031;-82
2023/01/02 12:30:06;;;;;;;45.90;30.00;;;333.60;2329.60;;;;;;4955447;29;20090;-85
2023/01/02 12:32:40;;;;;;;63.85;39.42;;;333.70;2329.60;;;;;;4936173;29;20031;-86
2023/01/02 12:35:41;;;;;;;57.70;39.50;;;333.70;2329.60;;;;;;4936246;29;20031;-84
2023/01/02 12:38:10;;;;;;;55.15;37.03;;;333.70;2329.60;;;;;;4913290;29;20115;-88
2023/01/02 12:40:52;;;;;;;57.67;38.72;;;333.50;2329.60;;;;;;4936636;29;20071;-89
2023/01/02 12:43:31;;;;;;;54.58;38.65;;;;;;;;;;4936214;29;20023;-90
2023/01/02 12:46:05;;;;;;;53.78;35.97;;;358.40;2329.60;;;;;;4935934;29;20361;-89
2023/01/02 12:48:46;;;;;;;52.40;34.40;;;333.70;2329.60;;;;;;4951662;29;20043;-86
2023/01/02 12:51:23;;;;;;;53.60;38.95;;;333.60;2329.60;;;;;;4951768;28;20054;-87
2023/01/02 12:54:07;;;;;;;74.78;49.90;;;333.60;2329.60;;;;;;4951954;29;20395;-86
2023/01/02 12:56:50;;;;;;;91.75;63.15;;;358.40;2329.60;;;;;;4952471;29;20463;-91
2023/01/02 12:59:19;;;;;;;74.65;46.60;;;333.70;2329.60;;;;;;4936035;29;20024;-89
2023/01/02 13:01:53;;;;;;;68.00;45.30;;;358.40;2329.60;;;;;;4951828;29;20122;-87
2023/01/02 13:04:24;;;;;;;67.20;41.35;;;333.70;2329.60;;;;;;4935746;29;20123;-89
2023/01/02 13:07:30;;;;;;;65.85;41.33;;;333.70;2329.60;;;;;;4952216;29;20114;-86
2023/01/02 13:10:01;;;;;;;46.70;32.60;;;358.40;2329.60;;;;;;4860351;29;20044;-90
2023/01/02 13:12:30;;;;;;;65.25;45.53;;;358.40;2329.60;;;;;;4936117;29;20062;-87
2023/01/02 13:14:56;;;;;;;51.45;36.05;;;358.50;2329.60;;;;;;4936239;29;20544;-88
2023/01/02 13:17:49;;;;;;;59.13;42.58;;;358.40;2329.60;;;;;;4951917;29;20032;-90
2023/01/02 13:20:33;;;;;;;80.80;55.53;;;358.50;2329.60;;;;;;4952451;29;20075;-89
2023/01/02 13:23:08;;;;;;;48.03;34.40;;;358.50;2329.60;;;;;;4951887;28;20032;-89
2023/01/02 13:25:40;;;;;;;64.03;44.08;;;358.50;2329.60;;;;;;4935848;29;20039;-89
2023/01/02 13:28:11;;;;;;;62.42;46.00;;;358.40;2329.60;;;;;;4951879;29;20043;-88
2023/01/02 13:30:38;;;;;;;74.40;48.17;;;358.40;2329.60;;;;;;4951707;29;20039;-88
2023/01/02 13:33:29;;;;;;;68.82;47.90;;;333.70;2329.60;;;;;;4939434;29;20424;-86
2023/01/02 13:35:55;;;;;;;75.35;52.80;;;333.70;2329.60;;;;;;4939609;29;20035;-88
2023/01/02 13:38:26;;;;;;;89.97;60.05;;;333.70;2329.60;;;;;;4955396;29;20032;-87
2023/01/02 13:40:55;;;;;;;82.63;54.83;;;333.70;2329.60;;;;;;4955388;29;20034;-85
2023/01/02 13:43:27;;;;;;;76.25;53.72;;;333.70;2329.60;;;;;;4955143;29;20074;-87
2023/01/02 13:45:54;;;;;;;84.55;59.30;;;333.60;2329.60;;;;;;4955279;29;20403;-85
2023/01/02 13:48:32;;;;;;;77.25;52.83;;;333.60;2329.60;;;;;;4939175;29;20028;-85
2023/01/02 13:51:04;;;;;;;86.68;62.45;;;333.50;2329.60;;;;;;4955110;28;20110;-89
2023/01/02 13:53:46;;;;;;;;;;;333.50;2329.60;;;;;;4955358;29;20051;-88
2023/01/02 13:56:24;;;;;;;81.90;56.63;;;333.50;2329.60;;;;;;4939196;29;20310;-85
2023/01/02 13:58:57;;;;;;;93.22;59.67;;;333.40;2329.60;;;;;;4955214;29;20032;-86
2023/01/02 14:01:25;;;;;;;92.68;64.72;;;333.40;2329.60;;;;;;4939098;29;20114;-87
2023/01/02 14:04:06;;;;;;;118.22;78.95;;;333.40;2329.60;;;;;;4938782;29;20039;-86
2023/01/02 14:06:39;;;;;;;104.55;75.38;;;333.30;2329.60;;;;;;4938952;29;20030;-88
2023/01/02 14:09:05;;;;;;;98.47;69.25;;;333.30;2329.60;;;;;;4954741;29;20555;-86
2023/01/02 14:11:55;;;;;;;101.70;71.50;;;333.20;2329.60;;;;;;4938838;29;20197;-86
2023/01/02 14:14:29;;;;;;;113.05;75.68;;;333.30;2329.60;;;;;;4954789;29;20032;-86
2023/01/02 14:17:36;;;;;;;106.22;74.40;;;333.20;2329.60;;;;;;4939009;29;20035;-87
2023/01/02 14:20:17;;;;;;;106.82;77.63;;;333.20;2329.60;;;;;;4938739;29;20079;-85
2023/01/02 14:22:52;;;;;;;112.35;82.20;;;333.00;2329.60;;;;;;4938830;29;20117;-88
2023/01/02 14:25:19;;;;;;;120.38;82.53;;;;;;;;;;4955115;29;20028;-87
2023/01/02 14:27:57;;;;;;;139.70;94.15;;;;;;;;;;4939551;29;20030;-86
2023/01/02 14:30:36;;;;;;;128.60;87.97;;;;;;;;;;4938476;29;20031;-88
2023/01/02 14:33:02;;;;;;;113.68;79.10;;;;;;;;;;4938369;29;20032;-86
2023/01/02 14:35:49;;;;;;;108.65;77.90;;;;;;;;;;4938106;29;20035;-86
2023/01/02 14:38:18;;;;;;;81.32;58.10;;;;;;;;;;4938176;29;20024;-88
2023/01/02 14:40:45;;;;;;;78.60;54.25;;;;;;;;;;4938636;29;20034;-88
2023/01/02 14:43:30;;;;;;;74.15;54.28;;;308.10;2304.00;;;;;;4937931;29;20030;-88
2023/01/02 14:46:44;;;;;;;86.85;60.92;;;307.90;2304.00;;;;;;4954435;29;20034;-87
2023/01/02 14:49:32;;;;;;;88.18;60.00;;;307.80;2304.00;;;;;;4921072;29;20044;-89
2023/01/02 14:52:11;;;;;;;100.20;63.80;;;;;;;;;;4941419;29;20050;-89
2023/01/02 14:54:58;;;;;;;140.48;82.40;;;;;;;;;;4941396;29;20486;-89
2023/01/02 14:57:31;;;;;;;64.22;40.67;;;;;;;;;;4941029;29;20028;-85
2023/01/02 14:59:59;;;;;;;113.63;64.45;;;;;;;;;;4940887;29;20038;-86
2023/01/02 15:02:30;;;;;;;129.57;75.30;;;;;;;;;;4940545;29;20118;-85
2023/01/02 15:05:02;;;;;;;102.47;59.72;;;;;;;;;;4940584;29;20027;-87
2023/01/02 15:07:35;;;;;;;84.75;51.72;;;;;;;;;;4940781;29;20039;-86
2023/01/02 15:10:05;;;;;;;74.47;46.53;;;;;;;;;;4940199;29;20134;-84
2023/01/02 15:15:28;;;;;;;125.53;78.53;;;;;;;;;;4980807;28;20065;-87
2023/01/02 15:17:57;;;;;;;115.45;71.22;;;;;;;;;;4979537;28;20030;-87
2023/01/02 15:20:25;;;;;;;117.18;76.35;;;;;;;;;;4979273;28;20118;-89
2023/01/02 15:22:51;;;;;;;130.85;85.80;;;;;;;;;;4979098;28;20121;-87
2023/01/02 15:25:30;;;;;;;135.30;89.22;;;;;;;;;;4978869;28;20038;-86
2023/01/02 15:27:56;;;;;;;149.68;101.68;;;;;;;;;;4977095;28;20023;-89
2023/01/02 15:30:29;;;;;;;129.43;87.40;;;;;;;;;;4978826;28;20026;-87
2023/01/02 15:32:55;;;;;;;129.23;87.07;;;;;;;;;;4995501;28;20022;-88
2023/01/02 15:35:29;;;;;;;111.85;79.70;;;;;;;;;;4967323;28;20470;-87
2023/01/02 15:37:56;;;;;;;125.18;83.13;;;;;;;;;;4958531;28;20061;-86
2023/01/02 15:40:26;;;;;;;118.97;79.22;;;;;;;;;;4972113;28;20022;-84
2023/01/02 15:45:50;;;;;;;94.68;66.55;;;;;;;;;;4995819;28;20030;-85
2023/01/02 15:48:16;;;;;;;114.28;75.18;;;;;;;;;;4978657;28;20417;-89
2023/01/02 15:50:42;;;;;;;110.60;73.88;;;;;;;;;;4977997;28;20046;-87
2023/01/02 15:53:19;;;;;;;153.40;103.22;;;;;;;;;;4970301;28;20375;-87
2023/01/02 15:55:46;;;;;;;169.57;113.38;;;;;;;;;;4957724;28;20021;-86
2023/01/02 15:58:20;;;;;;;155.70;101.68;;;;;;;;;;4968548;28;20038;-90
2023/01/02 16:03:57;;;;;;;163.55;109.68;;;256.50;2252.80;;;;;;4978431;28;20077;-87
2023/01/02 16:06:35;;;;;;;151.23;101.57;;;;;;;;;;4968159;28;20376;-85
2023/01/02 16:09:07;;;;;;;142.05;93.78;;;256.30;2252.80;;;;;;4987745;28;20101;-89
2023/01/02 16:11:46;;;;;;;124.22;85.22;;;256.20;2252.80;;;;;;4964650;28;20050;-86
2023/01/02 16:14:31;;;;;;;220.80;140.18;;;256.10;2252.80;;;;;;4968426;28;20093;-88
2023/01/02 16:17:08;;;;;;;172.15;116.85;;;256.20;2252.80;;;;;;4977871;28;20497;-88
2023/01/02 16:19:39;;;;;;;298.80;191.73;;;;;;;;;;4958451;28;20019;-88
2023/01/02 16:22:05;;;;;;;283.40;180.88;;;;;;;;;;4958053;28;20027;-87
2023/01/02 16:24:32;;;;;;;275.73;176.50;;;;;;;;;;4975194;28;20029;-85
2023/01/02 16:26:58;;;;;;;216.80;142.88;;;;;;;;;;4974047;28;20023;-86
2023/01/02 16:29:25;;;;;;;215.77;138.80;;;;;;;;;;4957682;28;20394;-88
2023/01/02 16:31:59;;;;;;;181.55;120.07;;;;;;;;;;4957438;28;20029;-87
2023/01/02 16:34:30;;;;;;;196.07;129.40;;;;;;;;;;4974649;28;20073;-87
2023/01/02 16:37:28;;;;;;;221.30;145.23;;;;;;;;;;4958087;28;20482;-88
2023/01/02 16:39:55;;;;;;;231.23;149.15;;;;;;;;;;4936282;28;20063;-88
2023/01/02 16:42:38;;;;;;;230.57;151.50;;;231.20;2252.80;;;;;;4957478;28;20113;-87
2023/01/02 16:45:05;;;;;;;300.60;195.95;;;231.10;2252.80;;;;;;4958000;28;20033;-87
2023/01/02 16:47:36;;;;;;;281.70;181.60;;;;;;;;;;4958087;28;20031;-87
2023/01/02 16:50:04;;;;;;;332.92;219.70;;;;;;;;;;4954116;28;20118;-87
2023/01/02 16:52:30;;;;;;;284.60;185.30;;;;;;;;;;4954851;29;20081;-89
2023/01/02 16:54:56;;;;;;;339.20;222.43;;;;;;;;;;4955792;29;20031;-87
2023/01/02 16:57:22;;;;;;;303.55;194.00;;;;;;;;;;4954538;29;20027;-87
2023/01/02 16:59:48;;;;;;;311.40;203.50;;;;;;;;;;4954599;29;20419;-87
2023/01/02 17:02:14;;;;;;;319.52;210.52;;;;;;;;;;4954742;29;20027;-89
2023/01/02 17:04:41;;;;;;;336.75;226.93;;;;;;;;;;4954348;29;20035;-88
2023/01/02 17:07:07;;;;;;;334.63;222.60;;;;;;;;;;4957222;28;20027;-87
2023/01/02 17:09:33;;;;;;;364.85;239.07;;;;;;;;;;4958643;29;20471;-88
2023/01/02 17:11:59;;;;;;;393.50;264.65;;;;;;;;;;4958583;29;20039;-88
2023/01/02 17:14:26;;;;;;;381.67;249.93;;;;;;;;;;4959809;29;20046;-88
2023/01/02 17:16:52;;;;;;;400.40;261.60;;;;;;;;;;4958859;29;20023;-88
2023/01/02 17:19:20;;;;;;;354.02;237.43;;;230.80;2252.80;;;;;;4958158;29;20031;-88
2023/01/02 17:21:46;;;;;;;341.05;227.10;;;230.60;2252.80;;;;;;4958262;29;20059;-90
2023/01/02 17:24:12;;;;;;;392.98;267.67;;;230.60;2252.80;;;;;;4958054;29;20102;-87
2023/01/02 17:26:38;;;;;;;426.27;287.50;;;;;;;;;;4957003;29;20115;-89
2023/01/02 17:29:04;;;;;;;353.35;237.77;;;;;;;;;;4958010;28;20126;-88
2023/01/02 17:31:30;;;;;;;391.65;271.85;;;;;;;;;;4958199;28;20090;-89
2023/01/02 17:34:00;;;;;;;451.48;301.40;;;;;;;;;;4957994;29;20055;-87
2023/01/02 17:36:26;;;;;;;448.45;293.70;;;;;;;;;;4957958;29;20019;-88
2023/01/02 17:38:52;;;;;;;492.90;330.25;;;;;;;;;;4957742;28;20027;-89
2023/01/02 17:41:18;;;;;;;559.22;410.30;;;;;;;;;;4957738;28;20030;-88
2023/01/02 17:43:44;;;;;;;483.08;331.05;;;;;;;;;;4957275;28;20550;-88
2023/01/02 17:46:10;;;;;;;453.38;302.83;;;;;;;;;;4957346;29;20047;-88
2023/01/02 17:48:36;;;;;;;373.70;250.75;;;;;;;;;;4956994;29;20027;-88
2023/01/02 17:51:03;;;;;;;326.70;220.23;;;;;;;;;;4959151;28;20046;-88
2023/01/02 17:53:33;;;;;;;324.75;214.38;;;;;;;;;;4969122;28;20014;-89
2023/01/02 17:55:59;;;;;;;393.27;259.45;;;;;;;;;;4980334;28;20026;-89
2023/01/02 17:58:26;;;;;;;355.40;247.25;;;;;;;;;;4980807;28;20462;-88
2023/01/02 18:00:52;;;;;;;332.20;230.85;;;;;;;;;;4980253;28;20037;-88
2023/01/02 18:03:18;;;;;;;299.42;211.57;;;;;;;;;;4980446;28;20023;-87
2023/01/02 18:05:44;;;;;;;296.90;203.32;;;;;;;;;;4980417;28;20022;-88
2023/01/02 18:08:10;;;;;;;321.77;223.18;;;;;;;;;;4980077;28;20137;-89
2023/01/02 18:10:38;;;;;;;333.35;226.80;;;;;;;;;;4980811;28;20041;-89
2023/01/02 18:13:05;;;;;;;338.20;236.00;;;;;;;;;;4980910;28;20113;-89
2023/01/02 18:15:31;;;;;;;354.98;245.52;;;;;;;;;;4980479;28;20165;-88
2023/01/02 18:17:59;;;;;;;386.40;266.60;;;;;;;;;;4979256;28;20510;-91
2023/01/02 18:20:25;;;;;;;396.80;270.63;;;;;;;;;;4980421;28;20386;-90
2023/01/02 18:22:58;;;;;;;376.77;262.27;;;;;;;;;;4980113;28;20026;-91
2023/01/02 18:25:28;;;;;;;413.33;290.63;;;;;;;;;;4979916;28;20038;-89
2023/01/02 18:27:59;;;;;;;482.17;325.00;;;;;;;;;;4976008;28;20046;-89
2023/01/02 18:30:26;;;;;;;437.60;300.33;;;;;;;;;;4941591;29;20027;-89
2023/01/02 18:32:59;;;;;;;405.25;272.40;;;;;;;;;;4941066;29;20459;-92
2023/01/02 18:35:29;;;;;;;387.23;259.48;;;;;;;;;;4939946;29;20607;-89
2023/01/02 18:37:57;;;;;;;437.02;295.85;;;;;;;;;;4941432;29;20029;-91
2023/01/02 18:40:24;;;;;;;377.50;255.48;;;;;;;;;;4941139;29;20030;-89
2023/01/02 18:42:54;;;;;;;475.92;327.10;;;;;;;;;;4941080;29;20431;-92
2023/01/02 18:45:21;;;;;;;439.98;300.73;;;;;;;;;;4941813;29;20106;-88
2023/01/02 18:47:48;;;;;;;409.37;269.60;;;;;;;;;;4941930;29;20016;-91
2023/01/02 18:50:15;;;;;;;405.52;262.08;;;;;;;;;;4945756;28;20635;-91
2023/01/02 18:52:42;;;;;;;413.58;259.35;;;;;;;;;;4957010;29;20379;-88